createdAt,value
2018-01-03T00:02:11.431Z,3.30
2018-01-03T00:05:22.123Z,3.30
2018-01-03T00:08:31.980Z,3.40
2018-01-03T00:11:42.589Z,3.40
2018-01-03T00:14:53.938Z,3.50
2018-01-03T00:18:03.929Z,3.50
2018-01-03T00:21:15.520Z,3.50
2018-01-03T00:24:26.270Z,3.50
2018-01-03T00:27:36.273Z,3.50
2018-01-03T00:30:47.768Z,3.60
2018-01-03T00:33:58.506Z,3.60
2018-01-03T00:37:09.322Z,3.60
2018-01-03T00:40:20.302Z,3.60
2018-01-03T00:43:31.615Z,3.60
2018-01-03T00:46:42.002Z,3.60
2018-01-03T00:49:51.817Z,3.60
2018-01-03T00:53:01.586Z,3.70
2018-01-03T00:56:12.316Z,3.80
2018-01-03T00:59:22.173Z,3.70
2018-01-03T01:02:32.969Z,3.70
2018-01-03T01:05:44.485Z,3.80
2018-01-03T01:08:55.099Z,3.70
2018-01-03T01:12:05.117Z,3.70
2018-01-03T01:15:15.160Z,3.70
2018-01-03T01:18:25.488Z,3.70
2018-01-03T01:21:35.892Z,3.70
2018-01-03T01:24:45.899Z,3.70
2018-01-03T01:27:56.505Z,3.70
2018-01-03T01:31:06.513Z,3.70
2018-01-03T01:34:16.214Z,3.70
2018-01-03T01:37:25.819Z,3.70
2018-01-03T01:40:35.716Z,3.70
2018-01-03T01:43:46.427Z,3.70
2018-01-03T01:46:56.575Z,3.70
2018-01-03T01:50:06.446Z,3.70
2018-01-03T01:53:16.194Z,3.70
2018-01-03T01:56:25.923Z,3.70
2018-01-03T01:59:36.544Z,3.60
2018-01-03T02:02:46.288Z,3.60
2018-01-03T02:05:56.079Z,3.60
2018-01-03T02:09:05.616Z,3.60
2018-01-03T02:12:16.570Z,3.60
2018-01-03T02:15:26.466Z,3.60
2018-01-03T02:18:36.311Z,3.70
2018-01-03T02:21:46.999Z,3.60
2018-01-03T02:24:56.923Z,3.60
2018-01-03T02:28:07.444Z,3.60
2018-01-03T02:31:17.389Z,3.60
2018-01-03T02:34:28.075Z,3.60
2018-01-03T02:37:37.947Z,3.60
2018-01-03T02:40:48.540Z,3.70
2018-01-03T02:44:00.090Z,3.60
2018-01-03T02:47:10.948Z,3.60
2018-01-03T02:50:21.546Z,3.70
2018-01-03T02:56:48.590Z,3.70
2018-01-03T02:59:59.206Z,3.60
2018-01-03T03:03:09.196Z,3.60
2018-01-03T03:06:20.606Z,3.70
2018-01-03T03:09:30.542Z,3.60
2018-01-03T03:12:40.420Z,3.70
2018-01-03T03:15:51.019Z,3.70
2018-01-03T03:19:01.856Z,3.70
2018-01-03T03:22:12.492Z,3.80
2018-01-03T03:25:23.928Z,3.80
2018-01-03T03:28:33.998Z,3.80
2018-01-03T03:31:44.622Z,3.90
2018-01-03T03:34:54.396Z,3.90
2018-01-03T03:38:04.951Z,3.90
2018-01-03T03:41:15.603Z,3.90
2018-01-03T03:44:25.518Z,3.90
2018-01-03T03:47:36.087Z,3.90
2018-01-03T03:50:46.727Z,3.80
2018-01-03T03:53:56.725Z,3.80
2018-01-03T03:57:06.600Z,3.90
2018-01-03T04:00:16.357Z,3.80
2018-01-03T04:03:27.021Z,3.80
2018-01-03T04:06:38.499Z,3.70
2018-01-03T04:09:48.553Z,3.70
2018-01-03T04:12:59.304Z,3.70
2018-01-03T04:16:09.934Z,3.70
2018-01-03T04:19:19.732Z,3.70
2018-01-03T04:22:30.448Z,3.70
2018-01-03T04:25:41.038Z,3.80
2018-01-03T04:28:51.747Z,3.80
2018-01-03T04:32:01.443Z,3.90
2018-01-03T04:35:12.771Z,3.90
2018-01-03T04:38:22.729Z,3.90
2018-01-03T04:41:33.394Z,3.90
2018-01-03T04:44:44.784Z,3.90
2018-01-03T04:47:54.754Z,3.90
2018-01-03T04:51:05.388Z,3.90
2018-01-03T04:54:16.758Z,3.90
2018-01-03T04:57:26.771Z,3.90
2018-01-03T05:00:36.563Z,3.90
2018-01-03T05:03:47.203Z,3.90
2018-01-03T05:06:57.917Z,3.90
2018-01-03T05:10:08.544Z,4.00
2018-01-03T05:13:19.262Z,4.00
2018-01-03T05:16:29.229Z,4.00
2018-01-03T05:19:39.075Z,4.00
2018-01-03T05:22:49.534Z,4.10
2018-01-03T05:25:59.384Z,4.20
2018-01-03T05:29:09.179Z,4.20
2018-01-03T05:32:18.919Z,4.20
2018-01-03T05:35:29.549Z,4.20
2018-01-03T05:38:39.339Z,4.20
2018-01-03T05:41:49.812Z,4.40
2018-01-03T05:44:59.965Z,4.50
2018-01-03T05:48:09.719Z,4.50
2018-01-03T05:51:20.789Z,4.50
2018-01-03T05:54:31.783Z,4.50
2018-01-03T05:57:41.761Z,4.50
2018-01-03T06:00:51.502Z,4.50
2018-01-03T06:04:01.941Z,4.50
2018-01-03T06:07:12.776Z,4.50
2018-01-03T06:10:23.599Z,4.50
2018-01-03T06:13:33.618Z,4.50
2018-01-03T06:16:43.540Z,4.50
2018-01-03T06:19:54.159Z,4.60
2018-01-03T06:23:04.775Z,4.70
2018-01-03T06:26:15.397Z,4.70
2018-01-03T06:29:25.314Z,4.80
2018-01-03T06:32:35.065Z,4.90
2018-01-03T06:35:45.964Z,5.00
2018-01-03T06:38:57.447Z,5.10
2018-01-03T06:42:07.516Z,5.10
2018-01-03T06:45:18.977Z,5.30
2018-01-03T06:48:29.009Z,5.30
2018-01-03T06:51:39.650Z,5.40
2018-01-03T06:54:50.347Z,5.40
2018-01-03T06:58:00.224Z,5.50
2018-01-03T07:01:10.684Z,5.70
2018-01-03T07:04:20.540Z,5.70
2018-01-03T07:07:30.481Z,5.60
2018-01-03T07:10:41.011Z,5.60
2018-01-03T07:13:52.489Z,5.70
2018-01-03T07:17:02.724Z,5.70
2018-01-03T07:20:13.171Z,5.70
2018-01-03T07:23:23.806Z,5.70
2018-01-03T07:26:34.281Z,5.80
2018-01-03T07:29:44.323Z,5.90
2018-01-03T07:32:54.964Z,5.90
2018-01-03T07:36:04.885Z,6.00
2018-01-03T07:39:15.544Z,6.00
2018-01-03T07:42:26.902Z,6.10
2018-01-03T07:45:36.845Z,6.10
2018-01-03T07:48:47.505Z,6.30
2018-01-03T07:51:58.955Z,6.40
2018-01-03T07:55:08.781Z,6.40
2018-01-03T07:58:19.510Z,6.40
2018-01-03T08:01:30.190Z,6.30
2018-01-03T08:04:40.835Z,6.30
2018-01-03T08:07:51.520Z,6.20
2018-01-03T08:11:01.395Z,6.20
2018-01-03T08:14:11.148Z,6.10
2018-01-03T08:17:22.581Z,6.00
2018-01-03T08:20:32.565Z,6.00
2018-01-03T08:23:44.049Z,6.00
2018-01-03T08:26:53.908Z,6.00
2018-01-03T08:30:03.733Z,5.90
2018-01-03T08:33:14.303Z,5.90
2018-01-03T08:36:24.968Z,5.90
2018-01-03T08:39:35.680Z,5.90
2018-01-03T08:42:46.407Z,5.80
2018-01-03T08:45:57.502Z,5.70
2018-01-03T08:49:07.881Z,5.70
2018-01-03T08:52:17.604Z,5.80
2018-01-03T08:55:27.291Z,5.70
2018-01-03T08:58:38.014Z,5.60
2018-01-03T09:01:47.887Z,5.60
2018-01-03T09:04:59.312Z,5.60
2018-01-03T09:08:10.342Z,5.60
2018-01-03T09:11:20.467Z,5.50
2018-01-03T09:14:31.044Z,5.50
2018-01-03T09:17:41.581Z,5.60
2018-01-03T09:20:52.231Z,5.60
2018-01-03T09:24:02.815Z,5.70
2018-01-03T09:27:14.357Z,5.70
2018-01-03T09:30:25.061Z,5.70
2018-01-03T09:33:35.098Z,5.70
2018-01-03T09:36:45.650Z,5.90
2018-01-03T09:39:56.270Z,5.80
2018-01-03T09:43:06.732Z,5.90
2018-01-03T09:46:16.711Z,5.90
2018-01-03T09:49:27.450Z,5.90
2018-01-03T09:52:38.886Z,5.90
2018-01-03T09:55:48.791Z,5.90
2018-01-03T09:58:59.336Z,5.90
2018-01-03T10:02:10.760Z,6.00
2018-01-03T10:05:20.765Z,6.00
2018-01-03T10:08:30.433Z,6.10
2018-01-03T10:11:41.161Z,6.20
2018-01-03T10:14:51.594Z,6.30
2018-01-03T10:18:01.638Z,6.30
2018-01-03T10:21:12.333Z,6.40
2018-01-03T10:24:23.648Z,6.40
2018-01-03T10:27:34.576Z,6.30
2018-01-03T10:30:45.265Z,6.20
2018-01-03T10:33:55.189Z,6.20
2018-01-03T10:37:05.076Z,6.20
2018-01-03T10:40:14.812Z,6.10
2018-01-03T10:43:24.595Z,6.10
2018-01-03T10:46:34.377Z,6.10
2018-01-03T10:49:44.961Z,6.20
2018-01-03T10:52:55.567Z,6.20
2018-01-03T10:56:05.437Z,6.20
2018-01-03T10:59:15.262Z,6.20
2018-01-03T11:02:25.921Z,6.40
2018-01-03T11:05:38.152Z,6.50
2018-01-03T11:08:48.772Z,6.50
2018-01-03T11:11:58.617Z,6.50
2018-01-03T11:15:10.222Z,6.60
2018-01-03T11:18:19.992Z,6.60
2018-01-03T11:21:30.568Z,6.70
2018-01-03T11:24:40.492Z,6.70
2018-01-03T11:27:51.101Z,6.90
2018-01-03T11:31:00.871Z,6.90
2018-01-03T11:34:10.572Z,7.00
2018-01-03T11:37:21.276Z,7.00
2018-01-03T11:40:31.022Z,7.10
2018-01-03T11:43:41.691Z,7.10
2018-01-03T11:46:52.292Z,7.00
2018-01-03T11:50:02.371Z,7.00
2018-01-03T11:53:12.998Z,7.00
2018-01-03T11:56:23.595Z,7.00
2018-01-03T11:59:33.533Z,6.90
2018-01-03T12:02:43.238Z,6.90
2018-01-03T12:05:53.828Z,5.10
2018-01-03T12:09:03.312Z,5.00
2018-01-03T12:12:13.554Z,4.60
2018-01-03T12:15:23.211Z,4.50
2018-01-03T12:18:33.031Z,4.30
2018-01-03T12:21:43.704Z,4.10
2018-01-03T12:24:53.597Z,4.10
2018-01-03T12:28:03.518Z,4.00
2018-01-03T12:31:14.042Z,3.80
2018-01-03T12:34:23.911Z,3.80
2018-01-03T12:37:34.522Z,3.60
2018-01-03T12:40:44.290Z,3.70
2018-01-03T12:43:54.046Z,3.60
2018-01-03T12:47:04.527Z,3.70
2018-01-03T12:50:14.459Z,3.70
2018-01-03T12:53:24.931Z,3.70
2018-01-03T12:56:36.276Z,3.80
2018-01-03T12:59:46.795Z,3.70
2018-01-03T13:02:56.847Z,3.70
2018-01-03T13:06:08.328Z,3.70
2018-01-03T13:09:19.015Z,3.70
2018-01-03T13:12:28.991Z,3.70
2018-01-03T13:15:39.646Z,3.80
2018-01-03T13:18:50.173Z,3.70
2018-01-03T13:21:59.998Z,3.70
2018-01-03T13:25:09.942Z,3.70
2018-01-03T13:28:20.517Z,3.80
2018-01-03T13:31:30.475Z,3.80
2018-01-03T13:34:41.235Z,3.90
2018-01-03T13:37:51.749Z,4.00
2018-01-03T13:44:19.259Z,4.10
2018-01-03T13:47:29.866Z,4.10
2018-01-03T13:50:40.574Z,4.10
2018-01-03T13:53:51.173Z,4.20
2018-01-03T13:57:01.915Z,4.30
2018-01-03T14:00:13.401Z,4.60
2018-01-03T14:03:23.523Z,4.60
2018-01-03T14:06:34.276Z,4.70
2018-01-03T14:09:45.751Z,5.00
2018-01-03T14:12:55.523Z,5.00
2018-01-03T14:16:05.357Z,4.90
2018-01-03T14:19:17.082Z,4.80
2018-01-03T14:22:26.825Z,4.70
2018-01-03T14:25:36.603Z,4.70
2018-01-03T14:28:48.037Z,4.50
2018-01-03T14:31:58.071Z,4.50
2018-01-03T14:35:08.572Z,4.50
2018-01-03T14:38:19.253Z,4.50
2018-01-03T14:41:29.045Z,4.50
2018-01-03T14:44:40.431Z,4.50
2018-01-03T14:47:50.280Z,4.40
2018-01-03T14:51:01.056Z,4.50
2018-01-03T14:54:11.668Z,4.40
2018-01-03T14:57:22.315Z,4.40
2018-01-03T15:00:33.138Z,4.40
2018-01-03T15:03:43.228Z,4.40
2018-01-03T15:06:53.823Z,4.40
2018-01-03T15:10:04.540Z,4.40
2018-01-03T15:13:15.335Z,4.50
2018-01-03T15:16:25.142Z,4.50
2018-01-03T15:19:35.088Z,4.50
2018-01-03T15:22:46.325Z,4.60
2018-01-03T15:25:56.253Z,4.60
2018-01-03T15:29:06.912Z,4.60
2018-01-03T15:32:17.478Z,4.60
2018-01-03T15:35:28.879Z,4.70
2018-01-03T15:38:38.839Z,4.70
2018-01-03T15:41:48.634Z,4.70
2018-01-03T15:44:58.513Z,4.80
2018-01-03T15:48:08.239Z,4.80
2018-01-03T15:51:18.008Z,4.80
2018-01-03T15:54:28.556Z,4.80
2018-01-03T15:57:38.532Z,4.80
2018-01-03T16:00:48.213Z,4.80
2018-01-03T16:03:58.093Z,4.90
2018-01-03T16:07:08.758Z,4.90
2018-01-03T16:10:18.560Z,4.90
2018-01-03T16:13:29.086Z,4.90
2018-01-03T16:16:39.122Z,4.90
2018-01-03T16:19:49.772Z,4.90
2018-01-03T16:23:00.261Z,4.90
2018-01-03T16:26:10.320Z,4.90
2018-01-03T16:29:20.979Z,4.90
2018-01-03T16:32:31.609Z,4.90
2018-01-03T16:35:41.351Z,4.90
2018-01-03T16:38:52.054Z,4.90
2018-01-03T16:42:02.740Z,4.90
2018-01-03T16:45:13.272Z,4.90
2018-01-03T16:48:23.090Z,4.90
2018-01-03T16:51:39.087Z,4.90
2018-01-03T16:54:49.336Z,4.90
2018-01-03T16:58:00.756Z,5.00
2018-01-03T17:01:10.915Z,4.90
2018-01-03T17:04:21.565Z,5.00
2018-01-03T17:07:33.007Z,4.90
2018-01-03T17:10:42.974Z,4.90
2018-01-03T17:13:53.730Z,5.00
2018-01-03T17:17:03.690Z,5.00
2018-01-03T17:20:14.537Z,5.00
2018-01-03T17:23:25.497Z,5.00
2018-01-03T17:26:36.033Z,5.00
2018-01-03T17:29:46.768Z,5.00
2018-01-03T17:32:56.639Z,5.00
2018-01-03T17:36:08.143Z,5.00
2018-01-03T17:39:18.030Z,5.00
2018-01-03T17:42:28.593Z,5.00
2018-01-03T17:45:38.797Z,5.00
2018-01-03T17:48:48.643Z,5.00
2018-01-03T17:51:59.220Z,5.00
2018-01-03T17:55:09.445Z,5.00
2018-01-03T17:58:20.243Z,5.00
2018-01-03T18:01:30.907Z,5.00
2018-01-03T18:04:41.582Z,5.00
2018-01-03T18:07:52.298Z,5.00
2018-01-03T18:11:02.874Z,5.00
2018-01-03T18:14:13.574Z,5.00
2018-01-03T18:17:24.348Z,5.00
2018-01-03T18:20:34.949Z,5.00
2018-01-03T18:23:45.717Z,5.00
2018-01-03T18:26:56.655Z,5.00
2018-01-03T18:30:06.759Z,5.00
2018-01-03T18:33:17.373Z,5.10
2018-01-03T18:36:27.888Z,5.00
2018-01-03T18:39:37.978Z,5.10
2018-01-03T18:42:47.903Z,5.10
2018-01-03T18:45:58.465Z,5.10
2018-01-03T18:49:09.129Z,5.10
2018-01-03T18:52:18.951Z,5.10
2018-01-03T18:55:29.711Z,5.10
2018-01-03T18:58:40.098Z,5.10
2018-01-03T19:01:49.991Z,5.10
2018-01-03T19:05:00.623Z,5.10
2018-01-03T19:08:11.416Z,5.10
2018-01-03T19:11:23.066Z,5.10
2018-01-03T19:14:33.063Z,5.10
2018-01-03T19:17:43.666Z,5.10
2018-01-03T19:20:53.772Z,5.10
2018-01-03T19:24:05.347Z,5.10
2018-01-03T19:27:15.248Z,5.10
2018-01-03T19:30:26.018Z,5.10
2018-01-03T19:33:36.746Z,5.10
2018-01-03T19:36:47.439Z,5.10
2018-01-03T19:39:58.687Z,5.10
2018-01-03T19:43:09.815Z,5.10
2018-01-03T19:46:19.666Z,5.10
2018-01-03T19:49:30.383Z,5.20
2018-01-03T19:52:41.755Z,5.10
2018-01-03T19:55:51.867Z,5.10
2018-01-03T19:59:02.716Z,5.10
2018-01-03T20:02:13.401Z,5.10
2018-01-03T20:05:23.311Z,5.10
2018-01-03T20:08:33.933Z,5.10
2018-01-03T20:11:43.812Z,5.10
2018-01-03T20:14:53.798Z,5.10
2018-01-03T20:18:04.598Z,5.10
2018-01-03T20:21:15.266Z,5.10
2018-01-03T20:24:25.814Z,5.10
2018-01-03T20:27:35.760Z,5.10
2018-01-03T20:30:46.161Z,5.20
2018-01-03T20:33:56.229Z,5.10
2018-01-03T20:37:06.159Z,5.20
2018-01-03T20:40:16.776Z,5.10
2018-01-03T20:43:27.414Z,5.20
2018-01-03T20:46:38.162Z,5.20
2018-01-03T20:49:49.496Z,5.20
2018-01-03T20:52:59.500Z,5.10
2018-01-03T20:56:10.267Z,5.10
2018-01-03T20:59:20.802Z,5.10
2018-01-03T21:02:30.707Z,5.00
2018-01-03T21:05:41.245Z,5.00
2018-01-03T21:08:52.061Z,5.00
2018-01-03T21:12:01.995Z,5.00
2018-01-03T21:15:12.573Z,5.00
2018-01-03T21:18:23.286Z,5.00
2018-01-03T21:21:33.278Z,5.00
2018-01-03T21:24:44.733Z,5.10
2018-01-03T21:27:55.558Z,5.10
2018-01-03T21:31:05.865Z,5.00
2018-01-03T21:34:15.650Z,5.10
2018-01-03T21:37:25.895Z,5.00
2018-01-03T21:40:36.501Z,5.00
2018-01-03T21:43:47.275Z,5.10
2018-01-03T21:46:58.122Z,5.00
2018-01-03T21:50:08.841Z,5.00
2018-01-03T21:53:18.678Z,5.10
2018-01-03T21:56:28.999Z,5.00
2018-01-03T21:59:39.274Z,5.10
2018-01-03T22:02:49.850Z,5.00
2018-01-03T22:06:00.569Z,5.10
2018-01-03T22:09:12.105Z,5.10
2018-01-03T22:12:22.492Z,5.00
2018-01-03T22:15:34.048Z,5.00
2018-01-03T22:18:44.890Z,5.10
2018-01-03T22:21:55.608Z,5.00
2018-01-03T22:25:05.680Z,5.00
2018-01-03T22:28:17.159Z,5.00
2018-01-03T22:31:27.297Z,5.00
2018-01-03T22:34:37.324Z,5.00
2018-01-03T22:37:48.055Z,5.00
2018-01-03T22:40:57.899Z,5.10
2018-01-03T22:44:08.463Z,5.00
2018-01-03T22:47:19.186Z,5.10
2018-01-03T22:50:29.811Z,5.10
2018-01-03T22:53:40.580Z,5.10
2018-01-03T22:56:51.147Z,5.10
2018-01-03T23:00:02.023Z,5.10
2018-01-03T23:03:12.631Z,5.00
2018-01-03T23:06:22.674Z,5.10
2018-01-03T23:09:33.479Z,5.00
2018-01-03T23:12:43.562Z,5.00
2018-01-03T23:15:53.398Z,5.00
2018-01-03T23:19:03.244Z,5.00
2018-01-03T23:22:13.191Z,5.00
2018-01-03T23:25:23.895Z,5.00
2018-01-03T23:28:34.503Z,5.00
2018-01-03T23:31:45.283Z,5.00
2018-01-03T23:34:55.988Z,5.10
2018-01-03T23:38:06.563Z,5.00
2018-01-03T23:41:17.325Z,5.10
2018-01-03T23:44:28.196Z,5.00
2018-01-03T23:47:38.393Z,5.00
2018-01-03T23:50:49.068Z,4.90
2018-01-03T23:53:59.096Z,5.00
2018-01-03T23:57:09.778Z,5.00
